LTFM Airport Information

Runway Information
Airport Frequencies
Airport Navaids
Airport Weather Information & NOTAM
ADDS - METARS form results

(0044 UTC 20 July 2019)
Data provider http://aviationweather.gov/metar/data/
 
METAR text: LTFM 200020Z 07012KT CAVOK 23/17 Q1016 NOSIG RMK RWY17L 07010KT RWY34L 06010KT RWY16R 06014KT
Conditions at: LTFM (ISTANBUL HANALI , TR) observed 0020 UTC 20 July 2019
Temperature: 23.0°C (73°F)
Dewpoint: 17.0°C (63°F) [RH = 69%]
Pressure (altimeter): 30.00 inches Hg (1016.0 mb)
Winds: from the ENE (70 degrees) at 14 MPH (12 knots; 6.2 m/s)
Visibility: 6 or more miles (10+ km)
Ceiling: ceiling and visibility are OK
Clouds: unknown
Weather: no significant weather observed at this time

METAR text: LTFM 192350Z 07012KT CAVOK 23/18 Q1016 NOSIG RMK RWY17L 07013KT RWY34L 06009KT RWY16R 07013KT
Conditions at: LTFM (ISTANBUL HANALI , TR) observed 2350 UTC 19 July 2019
Temperature: 23.0°C (73°F)
Dewpoint: 18.0°C (64°F) [RH = 73%]
Pressure (altimeter): 30.00 inches Hg (1016.0 mb)
Winds: from the ENE (70 degrees) at 14 MPH (12 knots; 6.2 m/s)
Visibility: 6 or more miles (10+ km)
Ceiling: ceiling and visibility are OK
Clouds: unknown
Weather: no significant weather observed at this time

Forecast for: LTFM (ISTANBUL HANALI , TR)
Text: TAF LTFM 192240Z 2000/2106 05008KT CAVOK
Forecast period: 0000 to 0400 UTC 20 July 2019
Forecast type: FROM: standard forecast or significant change
Winds: from the NE (50 degrees) at 9 MPH (8 knots; 4.1 m/s)
Visibility: 6 or more miles 10+ km)
Ceiling: unknown
Clouds: missing
Weather: NSW  (no significant weather)
Text: BECMG 2004/2008 05018KT SCT020
Forecast period: 0400 to 1600 UTC 20 July 2019
Forecast type: BECOMING: Conditions expected to become as follows by 0800 UTC 20 July 2019
Winds: from the NE (50 degrees) at 21 MPH (18 knots; 9.3 m/s)
Visibility: 6 or more miles 10+ km)
Ceiling: at least 12,000 feet AGL
Clouds: scattered clouds at 2000 feet AGL
Weather: NSW  (no significant weather)
Text: BECMG 2016/2018 06008KT CAVOK
Forecast period: 1600 UTC 20 July 2019 to 0600 UTC 21 July 2019
Forecast type: BECOMING: Conditions expected to become as follows by 1800 UTC 20 July 2019
Winds: from the ENE (60 degrees) at 9 MPH (8 knots; 4.1 m/s)
Visibility: 6 or more miles 10+ km)
Ceiling: unknown
Clouds: missing
Weather: NSW  (no significant weather)